This is the latest recevied weather packets stored in our database for station/object KK4MOR. If no packets are shown the sender has not sent any weather packets the latest 10 day(s).
| Time | Temp. | Humidity | Pressure | Rain* | Wind** | Luminosity | Snow |
|---|---|---|---|---|---|---|---|
| 1777734039 | 14.44° C | 50% | 1015.1 hPa | 0 mm | - | - | - |
| 1777733131 | 13.89° C | 51% | 1015 hPa | 0 mm | - | - | - |
| 1777732231 | 13.89° C | 52% | 1014.9 hPa | 0 mm | - | - | - |
| 1777731332 | 13.33° C | 54% | 1014.7 hPa | 0 mm | - | - | - |
| 1777730436 | 12.78° C | 59% | 1014.8 hPa | 0 mm | - | - | - |
| 1777729522 | 12.78° C | 60% | 1014.8 hPa | 0 mm | - | - | - |
| 1777728619 | 12.22° C | 61% | 1014.7 hPa | 0 mm | - | - | - |
| 1777727715 | 11.67° C | 64% | 1014.6 hPa | 0 mm | - | - | - |
| 1777726810 | 11.11° C | 68% | 1014.5 hPa | 0 mm | - | - | - |
| 1777725921 | 10.56° C | 70% | 1014.4 hPa | 0 mm | - | - | - |
| 1777725008 | 9.44° C | 75% | 1014.3 hPa | 0 mm | - | - | - |
| 1777724109 | 8.33° C | 77% | 1014.3 hPa | 0 mm | - | - | - |
| 1777723265 | 7.78° C | 79% | 1014.3 hPa | 0 mm | - | - | - |
| 1777722305 | 7.22° C | 81% | 1014.1 hPa | 0 mm | - | - | - |
| 1777721410 | 6.67° C | 80% | 1013.9 hPa | 0 mm | - | - | - |
| 1777720502 | 6.67° C | 80% | 1013.7 hPa | 0 mm | - | - | - |
| 1777719601 | 7.22° C | 80% | 1013.4 hPa | 0 mm | - | - | - |
| 1777718760 | 7.22° C | 79% | 1013.5 hPa | 0 mm | - | - | - |
| 1777717867 | 7.22° C | 80% | 1013.3 hPa | 0 mm | - | - | - |
| 1777716980 | 7.22° C | 79% | 1013.4 hPa | 0 mm | - | - | - |
| 1777716071 | 7.78° C | 78% | 1013.7 hPa | 0 mm | - | - | - |
| 1777715156 | 7.78° C | 76% | 1013.4 hPa | 0 mm | - | - | - |
| 1777714254 | 7.78° C | 75% | 1013.5 hPa | 0 mm | - | - | - |
| 1777713351 | 8.33° C | 75% | 1013.6 hPa | 0 mm | - | - | - |
| 1777712449 | 8.33° C | 75% | 1013.3 hPa | 0 mm | - | - | - |
* Rain latest hour (hover to see other rain measurements)
** Current wind speed in m/s (hover to see current wind gust speed)